createdAt,value
2019-04-01T00:09:24.863Z,7.40
2019-04-01T00:19:32.019Z,7.10
2019-04-01T00:29:37.583Z,6.80
2019-04-01T00:39:43.115Z,6.50
2019-04-01T00:49:48.742Z,6.20
2019-04-01T00:59:54.324Z,6.00
2019-04-01T01:09:59.856Z,6.00
2019-04-01T01:20:06.996Z,5.90
2019-04-01T01:30:13.351Z,5.80
2019-04-01T01:40:18.984Z,5.80
2019-04-01T01:50:24.496Z,5.70
2019-04-01T02:00:31.226Z,5.60
2019-04-01T02:10:36.957Z,5.50
2019-04-01T02:20:42.482Z,5.50
2019-04-01T02:30:49.579Z,5.50
2019-04-01T02:40:55.098Z,5.50
2019-04-01T02:51:00.722Z,5.40
2019-04-01T03:01:06.331Z,5.40
2019-04-01T03:11:11.957Z,5.30
2019-04-01T03:21:17.627Z,5.20
2019-04-01T03:31:23.313Z,5.20
2019-04-01T03:41:28.944Z,5.10
2019-04-01T03:51:34.592Z,5.20
2019-04-01T04:01:40.282Z,5.20
2019-04-01T04:11:45.918Z,5.20
2019-04-01T04:21:51.537Z,5.20
2019-04-01T04:31:57.075Z,5.20
2019-04-01T05:35:04.221Z,4.60
2019-04-01T05:45:10.245Z,4.70
2019-04-01T05:55:15.838Z,4.90
2019-04-01T06:05:21.339Z,5.20
2019-04-01T06:15:26.882Z,5.40
2019-04-01T06:25:32.475Z,5.60
2019-04-01T06:35:38.066Z,5.90
2019-04-01T06:45:43.666Z,6.20
2019-04-01T06:55:49.475Z,6.60
2019-04-01T07:05:54.956Z,6.80
2019-04-01T07:16:14.757Z,7.00
2019-04-01T07:26:07.955Z,7.20
2019-04-01T07:36:14.765Z,7.50
2019-04-01T07:46:20.564Z,7.70
2019-04-01T07:56:26.167Z,7.80
2019-04-01T08:06:32.023Z,8.20
2019-04-01T08:16:37.700Z,8.70
2019-04-01T08:26:43.731Z,8.80
2019-04-01T08:36:49.223Z,8.80
2019-04-01T08:46:54.923Z,9.10
2019-04-01T08:57:01.558Z,9.60
2019-04-01T09:07:07.126Z,10.00
2019-04-01T09:17:13.184Z,10.40
2019-04-01T09:27:18.836Z,10.30
2019-04-01T09:37:24.355Z,10.40
2019-04-01T09:47:30.007Z,10.70
2019-04-01T09:57:35.499Z,10.70
2019-04-01T10:07:41.039Z,11.00
2019-04-01T10:17:46.694Z,11.40
2019-04-01T10:27:52.313Z,11.70
2019-04-01T10:37:57.922Z,11.80
2019-04-01T10:48:03.635Z,12.00
2019-04-01T10:58:10.346Z,12.30
2019-04-01T11:08:16.238Z,12.60
2019-04-01T11:18:21.941Z,12.70
2019-04-01T11:28:27.602Z,12.90
2019-04-01T11:38:33.244Z,13.10
2019-04-01T11:48:38.852Z,13.50
2019-04-01T11:58:44.326Z,13.60
2019-04-01T12:08:49.849Z,13.70
2019-04-01T12:18:55.351Z,14.00
2019-04-01T12:29:00.841Z,14.40
2019-04-01T12:39:07.937Z,14.50
2019-04-01T12:49:13.671Z,14.50
2019-04-01T12:59:19.179Z,14.80
2019-04-01T13:09:26.740Z,14.90
2019-04-01T13:19:32.350Z,15.00
2019-04-01T13:29:40.952Z,15.40
2019-04-01T13:39:47.429Z,15.20
2019-04-01T17:44:36.391Z,7.90
2019-04-01T17:54:42.414Z,8.00
2019-04-01T18:04:48.360Z,7.90
2019-04-01T18:14:54.335Z,7.80
2019-04-01T18:25:00.149Z,7.50
2019-04-01T18:35:07.454Z,7.30
2019-04-01T18:45:13.396Z,7.10
2019-04-01T18:55:19.449Z,6.90
2019-04-01T19:05:26.888Z,6.70
2019-04-01T19:15:33.841Z,6.50
2019-04-01T19:25:40.307Z,6.30
2019-04-01T19:35:46.338Z,6.20
2019-04-01T19:45:52.275Z,6.20
2019-04-01T19:55:58.289Z,6.10
2019-04-01T20:06:07.405Z,6.00
2019-04-01T20:16:13.099Z,5.90
2019-04-01T20:26:19.891Z,5.90
2019-04-01T20:36:28.763Z,5.80
2019-04-01T20:46:34.333Z,5.60
2019-04-01T20:56:40.173Z,5.50
2019-04-01T21:06:45.961Z,5.40
2019-04-01T21:16:51.543Z,5.20
2019-04-01T21:27:01.060Z,5.10
2019-04-01T21:37:06.520Z,5.00
2019-04-01T21:47:12.536Z,4.90
2019-04-01T21:57:20.470Z,4.80
2019-04-01T22:07:25.420Z,4.70
2019-04-01T22:17:30.889Z,4.60
2019-04-01T22:27:36.468Z,4.50
2019-04-01T22:37:42.000Z,4.40
2019-04-01T22:47:47.551Z,4.40
2019-04-01T22:57:53.276Z,4.30
2019-04-01T23:07:59.138Z,4.30
2019-04-01T23:18:04.603Z,4.20
2019-04-01T23:28:10.853Z,4.10
2019-04-01T23:38:16.696Z,4.00
2019-04-01T23:48:22.172Z,4.00
2019-04-01T23:58:27.714Z,3.90
